Domov               UVHVVR             MKGP            O straneh              
ZDRAVSTVENO VARSTVO RASTLIN
  MREŽA AGROMET. POSTAJ
 ► PROGNOSTIČNA OBVESTILA
AGROMETEOROLOŠKI PODATKI -
ARSO
OBVLADOVANJE TVEGANJ ZARADI
NEUGODNIH VREMENSKIH RAZMER
  ► NARAVNE NESREČE
  ► SUŠA/MOČA
  ► NAMAKANJE
  ► ŽLED (gozdarstvo)
KARTOGRAFSKI PRIKAZI
SPLETNE POVEZAVE
PROJEKTI IN PUBLIKACIJE

AGROMETEOROLOŠKA MREŽA: VREMENSKE POSTAJE IN FENOLOŠKA OPAZOVANJA

Pregled podatkov za lokacijo Vipolže, meteorološka postaja 44544

Pregled senzorjev na lokaciji

ID Ime Zadnja
vrednost
Datum
zadnje
spremembe
Tip
senzorja
3085 Omočenost lista (U) 0 U 18.7.2018 00:30 A730WET
3086 Padavine (mm) 0 mm 18.7.2018 00:30 Rain-O-Matic
3084 Relativna vlaga 2 m (% RH) 97,64 % RH 18.7.2018 00:30 50YA
3083 Temperatura 2 m (°C) 18,03 °C 18.7.2018 00:30 50YA
4030 Smer vetra (°) 80,47 ° 18.7.2018 00:30 Generic 0 - 360
4029 Hitrost vetra (km/h) 0,26 km/h 18.7.2018 00:30 Generic 200 km/h

Pregled podatkov zadnjih 24 ur

Zap.
št.
Datum in čas Vipolže
Omočenost
lista
Padavine Relativna
vlaga
2
m
Temperatura
2
m
Smer
vetra
Hitrost
vetra
1 18.7.2018 01:00
2 18.7.2018 00:30
3 18.7.2018 00:00
4 17.7.2018 23:30 0 0 97,6 18 80,5 0,3
5 17.7.2018 23:00 0 0 97,7 18,2 70,3 1,3
6 17.7.2018 22:30 0 0 97,3 18,5 64,2 0,9
7 17.7.2018 22:00 0 0 96,5 19 75,9 0,7
8 17.7.2018 21:30 0 0 96,3 19,3 45,1 1,1
9 17.7.2018 21:00 0 0 93,6 19,6 140,2 0
10 17.7.2018 20:30 0 0 86,8 21,2 140,2 0
11 17.7.2018 20:00 0 0 77,3 22,8 140,2 0
12 17.7.2018 19:30 0 0 72,1 24,5 140,8 0,5
13 17.7.2018 19:00 0 0 68,4 25,5 147,5 1
14 17.7.2018 18:30 0 0 68,8 24,9 160,5 0,2
15 17.7.2018 18:00 0 0 65,1 25,1 139,3 0,5
16 17.7.2018 17:30 0 0 65,7 24,6 181,5 0,2
17 17.7.2018 17:00 0 0 62,1 25,2 178,8 1,8
18 17.7.2018 16:30 0 0 54,3 28,2 207,7 3
19 17.7.2018 16:00 0 0 56,5 28,3 183,3 2,9
20 17.7.2018 15:30 0 0 53 30,8 177,8 3,9
21 17.7.2018 15:00 0 0 52,8 31,1 299,5 3,2
22 17.7.2018 14:30 0 0 55,8 30,8 284,4 5,6
23 17.7.2018 14:00 0 0 56,9 30,3 294 4
24 17.7.2018 13:30 0 0 58,3 29,9 271,3 4,4
25 17.7.2018 13:00 0 0 57,5 29,7 308,4 3,5
26 17.7.2018 12:30 0 0 59,8 29,1 310,5 4,2
27 17.7.2018 12:00 0 0 61,5 28,8 283,8 3,5
28 17.7.2018 11:30 0 0 62,9 28,5 297,9 3,8
29 17.7.2018 11:00 0 0 65,1 28,2 271 2,2
30 17.7.2018 10:30 0 0 68,2 28,1 279,4 2,1
31 17.7.2018 10:00 0 0 67,4 28 262,4 1,1
32 17.7.2018 09:30 0 0 69,1 27,5 332,2 1
33 17.7.2018 09:00 0 0 71,8 26,7 300,9 1,9
34 17.7.2018 08:30 0 0 70,2 27,5 265 0,6
35 17.7.2018 08:00 0 0 71,4 27,1 264,7 0,3
36 17.7.2018 07:30 0 0 71,3 26,4 257,4 0,2
37 17.7.2018 07:00 0 0 71,4 26,4 79,9 0
38 17.7.2018 06:30 0 0 78,7 24,3 79,9 0
39 17.7.2018 06:00 0 0 98,7 20,3 79,9 0
40 17.7.2018 05:30 0 0 99,7 18,5 79,9 0
41 17.7.2018 05:00 0 0 99,3 18,6 79,9 0
42 17.7.2018 04:30 0 0 99,2 19,1 79,9 0
43 17.7.2018 04:00 0 0 98,5 19,3 79,9 0
44 17.7.2018 03:30 0 0 98,2 19,6 79,9 0,2
45 17.7.2018 03:00 0 0 99,4 19,5 50,5 0,7
46 17.7.2018 02:30 0 0 99,9 19,2 71,8 1
47 17.7.2018 02:00 0 0 99,3 19 56,4 0,1
48 17.7.2018 01:30 0 0 98,6 19 56,3 0
© 2011 Ministrstvo za kmetijstvo, gozdarstvo in prehrano. Vse pravice pridržane.